Time;durP1;ratioP1;P1;durP2;ratioP2;P2;SDS_P1;SDS_P2;PMS_P1;PMS_P2;Temp;Humidity;BMP_temperature;BMP_pressure;BME280_temperature;BME280_humidity;BME280_pressure;Samples;Min_cycle;Max_cycle;Signal;HPM_P1;HPM_P2
2023/04/27 00:01:42;;;;;;;2.30;1.40;;;;;;;10.47;73.02;96499.44;5069951;28;20280;-69
2023/04/27 00:04:09;;;;;;;1.63;1.23;;;;;;;10.45;73.15;96514.22;5069471;28;20201;-69
2023/04/27 00:06:36;;;;;;;0.90;0.90;;;;;;;10.30;73.33;96496.94;5069269;28;20185;-68
2023/04/27 00:09:03;;;;;;;1.30;1.10;;;;;;;10.34;72.28;96504.47;5070326;28;20201;-68
2023/04/27 00:11:30;;;;;;;0.80;0.80;;;;;;;10.31;72.51;96508.94;5068648;28;20213;-68
2023/04/27 00:13:57;;;;;;;0.80;0.80;;;;;;;10.29;71.83;96511.63;5069702;28;20197;-71
2023/04/27 00:16:25;;;;;;;0.90;0.90;;;;;;;10.25;71.83;96504.94;5068509;28;20228;-69
2023/04/27 00:18:52;;;;;;;2.03;1.10;;;;;;;10.29;71.27;96506.44;5068239;28;20669;-67
2023/04/27 00:21:19;;;;;;;0.90;0.90;;;;;;;10.29;71.22;96515.97;5068836;28;20193;-69
2023/04/27 00:23:46;;;;;;;0.90;0.90;;;;;;;10.31;72.13;96508.94;5069210;28;20224;-69
2023/04/27 00:26:13;;;;;;;1.07;1.00;;;;;;;10.33;72.65;96517.47;5069690;28;20201;-69
2023/04/27 00:28:43;;;;;;;1.23;1.13;;;;;;;10.32;73.10;96523.56;5068401;28;20570;-71
2023/04/27 00:31:10;;;;;;;1.17;1.07;;;;;;;10.27;73.94;96510.03;5068123;28;20278;-69
2023/04/27 00:33:37;;;;;;;2.23;1.10;;;;;;;10.22;74.20;96520.63;5066780;28;20258;-69
2023/04/27 00:36:04;;;;;;;0.97;0.93;;;;;;;10.18;74.31;96511.34;5069249;28;20552;-70
2023/04/27 00:38:31;;;;;;;1.13;1.03;;;;;;;10.26;74.92;96521.31;5067286;28;20263;-69
2023/04/27 00:41:02;;;;;;;1.00;1.00;;;;;;;10.26;74.99;96516.13;5068926;28;20193;-73
2023/04/27 00:43:29;;;;;;;1.93;1.37;;;;;;;10.27;75.63;96520.38;5067910;28;20192;-71
2023/04/27 00:45:58;;;;;;;2.70;1.70;;;;;;;10.37;75.75;96518.97;5068035;28;20193;-69
2023/04/27 00:48:25;;;;;;;2.30;1.40;;;;;;;10.47;75.23;96530.50;5068739;28;20694;-69
2023/04/27 00:50:53;;;;;;;3.57;1.70;;;;;;;10.44;74.90;96523.75;5066438;28;20278;-69
2023/04/27 00:53:20;;;;;;;2.13;1.40;;;;;;;10.46;75.27;96534.03;5067743;28;20193;-68
2023/04/27 00:55:48;;;;;;;1.47;1.10;;;;;;;10.50;75.72;96527.78;5066988;28;20677;-69
2023/04/27 00:58:15;;;;;;;5.57;2.70;;;;;;;10.45;75.35;96529.75;5068526;28;20190;-69
2023/04/27 01:00:42;;;;;;;4.80;2.50;;;;;;;10.36;75.40;96532.84;5067450;28;20189;-67
2023/04/27 01:03:10;;;;;;;3.63;3.17;;;;;;;10.38;75.41;96541.38;5066331;28;20189;-69
2023/04/27 01:05:38;;;;;;;2.00;1.20;;;;;;;10.36;75.63;96536.28;5068643;28;20243;-68
2023/04/27 01:08:07;;;;;;;1.10;1.00;;;;;;;10.35;75.40;96551.88;5067618;28;20189;-69
2023/04/27 01:10:34;;;;;;;0.70;0.70;;;;;;;10.06;77.65;96539.56;5067293;28;20221;-69
2023/04/27 01:13:02;;;;;;;0.97;0.90;;;;;;;10.09;77.93;96552.38;5067892;28;20189;-69
2023/04/27 01:15:30;;;;;;;0.80;0.80;;;;;;;10.15;77.25;96552.06;5067057;28;20186;-69
2023/04/27 01:18:00;;;;;;;0.80;0.80;;;;;;;10.07;77.87;96551.59;5068515;28;20193;-68
2023/04/27 01:20:29;;;;;;;0.80;0.80;;;;;;;10.05;78.12;96566.38;5066360;28;20243;-69
2023/04/27 01:22:57;;;;;;;0.60;0.60;;;;;;;10.07;77.55;96554.19;5069323;28;20189;-70
2023/04/27 01:25:25;;;;;;;2.23;1.07;;;;;;;10.01;75.83;96544.16;5068503;28;20220;-68
2023/04/27 01:27:53;;;;;;;1.13;0.70;;;;;;;10.22;74.74;96561.22;5068762;28;20205;-68
2023/04/27 01:30:21;;;;;;;1.27;0.70;;;;;;;10.24;73.98;96565.38;5067662;28;20205;-69
2023/04/27 01:32:48;;;;;;;1.40;1.00;;;;;;;10.10;74.07;96567.84;5067940;28;20185;-70
2023/04/27 01:35:18;;;;;;;1.53;1.20;;;;;;;10.07;73.64;96572.31;5067291;28;20212;-69
2023/04/27 01:37:45;;;;;;;13.60;7.20;;;;;;;10.04;73.05;96565.53;5065805;28;20656;-69
2023/04/27 01:40:13;;;;;;;4.70;2.33;;;;;;;10.04;73.40;96572.44;5066930;28;20197;-68
2023/04/27 01:42:40;;;;;;;3.47;2.33;;;;;;;9.93;73.06;96564.41;5065649;28;20366;-72
2023/04/27 01:45:08;;;;;;;5.60;4.30;;;;;;;10.01;73.69;96573.47;5100496;28;20675;-71
2023/04/27 01:47:36;;;;;;;3.40;2.30;;;;;;;10.04;73.26;96577.63;5067489;28;20189;-69
2023/04/27 01:50:05;;;;;;;1.90;1.30;;;;;;;9.97;72.67;96581.44;5066380;28;20220;-70
2023/04/27 01:52:32;;;;;;;2.33;1.27;;;;;;;9.92;73.18;96583.41;5068141;28;20217;-69
2023/04/27 01:55:01;;;;;;;1.13;0.90;;;;;;;9.79;73.40;96584.03;5065807;28;20199;-68
2023/04/27 01:57:28;;;;;;;1.77;1.30;;;;;;;9.89;73.01;96583.59;5050024;28;20207;-69
2023/04/27 01:59:55;;;;;;;1.30;1.20;;;;;;;9.88;73.36;96587.06;5065664;28;20197;-68
2023/04/27 02:02:22;;;;;;;3.40;1.30;;;;;;;9.75;73.39;96581.69;5067022;28;20193;-68
2023/04/27 02:04:50;;;;;;;1.10;1.00;;;;;;;9.55;73.35;96587.00;5067314;28;20192;-67
2023/04/27 02:07:18;;;;;;;1.80;1.50;;;;;;;9.60;73.09;96583.25;5066237;28;20262;-69
2023/04/27 02:09:45;;;;;;;3.10;2.23;;;;;;;9.63;73.03;96577.13;5066587;28;20196;-69
2023/04/27 02:12:13;;;;;;;0.93;0.90;;;;;;;9.68;72.75;96588.94;5069107;28;20251;-72
2023/04/27 02:14:40;;;;;;;6.13;5.10;;;;;;;9.79;72.42;96598.72;5071889;28;20189;-71
2023/04/27 02:17:07;;;;;;;1.93;1.63;;;;;;;9.68;72.27;96601.00;5070960;28;20247;-69
2023/04/27 02:19:35;;;;;;;2.17;1.20;;;;;;;9.59;72.47;96594.53;5071757;28;20698;-68
2023/04/27 02:22:02;;;;;;;4.27;2.80;;;;;;;9.66;72.74;96602.84;5071014;28;20284;-71
2023/04/27 02:24:30;;;;;;;1.73;1.47;;;;;;;9.73;72.52;96593.84;5071652;28;20580;-68
2023/04/27 02:26:57;;;;;;;6.67;4.37;;;;;;;9.75;72.26;96604.94;5104084;28;20628;-71
2023/04/27 02:29:29;;;;;;;11.80;6.53;;;;;;;9.69;72.45;96606.09;5069344;28;20591;-67
2023/04/27 02:31:56;;;;;;;8.50;4.10;;;;;;;9.69;72.13;96603.50;5071597;28;20727;-69
2023/04/27 02:34:24;;;;;;;13.07;7.17;;;;;;;9.66;71.70;96605.41;5070534;28;20250;-67
2023/04/27 02:36:51;;;;;;;19.10;10.73;;;;;;;9.67;71.11;96617.41;5070326;28;20193;-67
2023/04/27 02:39:18;;;;;;;6.63;4.30;;;;;;;9.64;70.33;96605.47;5069386;28;20193;-68
2023/04/27 02:41:44;;;;;;;2.77;1.83;;;;;;;9.67;70.96;96607.91;5103551;28;20196;-69
2023/04/27 02:44:12;;;;;;;4.10;2.77;;;;;;;9.65;70.96;96612.31;5071268;28;20272;-68
2023/04/27 02:46:39;;;;;;;8.50;3.87;;;;;;;9.71;70.20;96612.03;5069065;28;20243;-69
2023/04/27 02:49:06;;;;;;;3.63;2.63;;;;;;;9.72;69.91;96608.53;5071198;28;20240;-69
2023/04/27 02:51:33;;;;;;;2.83;1.70;;;;;;;9.80;69.92;96616.75;5068805;28;20758;-70
2023/04/27 02:54:00;;;;;;;5.67;3.33;;;;;;;9.65;69.99;96612.31;5069980;28;20201;-69
2023/04/27 02:56:27;;;;;;;4.70;2.93;;;;;;;9.55;69.86;96602.50;5070131;28;20205;-68
2023/04/27 02:58:55;;;;;;;6.37;3.70;;;;;;;9.60;69.63;96616.88;5070943;28;20266;-69
2023/04/27 03:01:22;;;;;;;9.13;4.70;;;;;;;9.47;69.76;96615.81;5103370;28;20197;-68
2023/04/27 03:03:49;;;;;;;20.77;11.07;;;;;;;9.48;69.83;96620.06;5070235;28;20239;-71
2023/04/27 03:06:16;;;;;;;17.83;8.37;;;;;;;9.48;69.06;96622.63;5069746;28;20276;-70
2023/04/27 03:08:43;;;;;;;4.93;2.60;;;;;;;9.62;69.40;96632.34;5069743;28;20280;-67
2023/04/27 03:11:11;;;;;;;1.70;1.07;;;;;;;9.59;69.49;96640.22;5070660;28;20327;-68
2023/04/27 03:13:41;;;;;;;2.63;1.60;;;;;;;9.53;69.48;96623.28;5068509;28;20254;-70
2023/04/27 03:16:12;;;;;;;2.00;1.27;;;;;;;9.61;69.95;96635.81;5076304;28;20296;-68
2023/04/27 03:18:39;;;;;;;1.83;1.10;;;;;;;9.47;69.39;96630.47;5089564;28;20580;-68
2023/04/27 03:21:11;;;;;;;7.10;3.73;;;;;;;9.50;69.77;96644.06;5089656;28;20277;-67
2023/04/27 03:23:38;;;;;;;3.60;2.53;;;;;;;9.27;69.80;96649.53;5089661;28;20735;-69
2023/04/27 03:26:13;;;;;;;3.83;1.90;;;;;;;9.32;71.07;96660.47;5090033;28;20606;-69
2023/04/27 03:28:41;;;;;;;1.93;1.17;;;;;;;9.16;71.51;96654.34;5089633;28;20184;-69
2023/04/27 03:31:09;;;;;;;0.57;0.50;;;;;;;8.99;72.23;96662.84;5088679;28;20661;-71
2023/04/27 03:33:37;;;;;;;1.17;1.00;;;;;;;8.97;72.52;96653.50;5087354;28;20216;-68
2023/04/27 03:36:05;;;;;;;0.67;0.67;;;;;;;8.92;72.79;96656.28;5081622;28;20200;-69
2023/04/27 03:38:34;;;;;;;0.87;0.80;;;;;;;8.97;73.50;96658.66;5087574;28;20667;-68
2023/04/27 03:41:02;;;;;;;0.97;0.50;;;;;;;8.88;73.88;96659.91;5086745;28;20196;-68
2023/04/27 03:43:29;;;;;;;0.53;0.53;;;;;;;8.84;73.94;96668.72;5087904;28;20192;-68
2023/04/27 03:45:56;;;;;;;0.60;0.60;;;;;;;8.86;73.91;96671.25;5089090;28;20196;-71
2023/04/27 03:48:23;;;;;;;0.90;0.70;;;;;;;8.91;73.59;96669.28;5071176;28;20291;-69
2023/04/27 03:50:53;;;;;;;1.93;0.70;;;;;;;8.91;74.32;96664.09;5088187;28;20195;-72
2023/04/27 03:53:20;;;;;;;0.83;0.50;;;;;;;8.87;74.20;96672.91;5089850;28;20196;-68
2023/04/27 03:55:48;;;;;;;11.73;7.83;;;;;;;8.95;74.60;96681.13;5087211;28;20242;-70
2023/04/27 03:58:16;;;;;;;4.60;3.30;;;;;;;9.05;73.53;96682.41;5088939;28;20236;-69
2023/04/27 04:01:02;;;;;;;16.33;10.20;;;;;;;9.04;73.45;96670.41;5087822;28;20675;-70
2023/04/27 04:03:30;;;;;;;15.70;10.00;;;;;;;9.12;72.83;96688.13;5090186;28;20684;-69
2023/04/27 04:05:57;;;;;;;7.83;5.20;;;;;;;9.18;72.75;96688.69;5089701;28;20193;-70
2023/04/27 04:08:25;;;;;;;5.50;2.87;;;;;;;9.37;72.58;96693.84;5087067;28;20208;-74
2023/04/27 04:10:53;;;;;;;2.60;1.10;;;;;;;9.29;72.71;96695.94;5088609;28;20192;-73
2023/04/27 04:13:25;;;;;;;0.93;0.90;;;;;;;8.78;73.51;96638.00;5088421;28;20200;-67
2023/04/27 04:16:11;;;;;;;1.10;1.00;;;;;;;8.56;74.81;96651.94;5070636;28;20319;-68
2023/04/27 04:18:39;;;;;;;0.77;0.70;;;;;;;8.84;75.18;96699.69;5088737;28;20848;-68
2023/04/27 04:21:06;;;;;;;2.13;1.10;;;;;;;8.83;74.52;96712.69;5089563;28;20235;-72
2023/04/27 04:23:32;;;;;;;1.10;1.00;;;;;;;8.80;75.58;96710.22;5089381;28;20745;-68
2023/04/27 04:26:00;;;;;;;2.60;1.30;;;;;;;8.69;74.33;96709.88;5086991;28;20723;-69
2023/04/27 04:28:32;;;;;;;1.50;1.37;;;;;;;8.93;74.10;96703.59;5088090;28;20192;-70
2023/04/27 04:31:04;;;;;;;3.10;1.50;;;;;;;8.96;73.49;96713.81;5086929;28;20196;-70
2023/04/27 04:33:32;;;;;;;1.90;1.70;;;;;;;8.96;73.34;96711.25;5088350;28;20679;-69
2023/04/27 04:36:01;;;;;;;1.87;1.50;;;;;;;9.00;72.71;96721.34;5087081;28;20200;-68
2023/04/27 04:38:30;;;;;;;2.40;2.20;;;;;;;8.97;72.11;96707.72;5087453;28;20307;-68
2023/04/27 04:40:58;;;;;;;3.20;2.20;;;;;;;9.22;72.39;96726.38;5087778;28;20744;-69
2023/04/27 04:43:25;;;;;;;2.60;2.40;;;;;;;9.20;71.67;96715.28;5086797;28;20575;-69
2023/04/27 04:45:52;;;;;;;2.03;1.83;;;;;;;9.17;71.20;96720.56;5087952;28;20664;-69
2023/04/27 04:48:21;;;;;;;2.27;2.00;;;;;;;9.33;71.04;96726.75;5087940;28;20213;-75
2023/04/27 04:50:49;;;;;;;3.60;2.20;;;;;;;9.12;70.81;96690.72;5071250;28;20277;-70
2023/04/27 04:53:17;;;;;;;2.87;1.90;;;;;;;8.65;71.45;96636.91;5070536;28;20267;-73
2023/04/27 04:55:44;;;;;;;2.37;2.03;;;;;;;8.91;71.60;96736.41;5087550;28;20572;-71
2023/04/27 04:58:12;;;;;;;2.50;2.00;;;;;;;8.86;71.81;96694.47;5071163;28;20181;-70
2023/04/27 05:00:39;;;;;;;3.60;2.70;;;;;;;9.39;70.82;96729.06;5088295;28;20292;-69
2023/04/27 05:03:06;;;;;;;3.40;2.37;;;;;;;9.33;70.67;96723.31;5088788;28;20283;-70
2023/04/27 05:05:33;;;;;;;3.20;2.23;;;;;;;9.06;71.09;96689.25;5087645;28;20613;-72
2023/04/27 05:08:01;;;;;;;3.20;2.43;;;;;;;9.17;71.25;96730.09;5087298;28;20185;-69
2023/04/27 05:10:30;;;;;;;3.63;2.90;;;;;;;9.22;72.29;96739.31;5086419;28;20238;-70
2023/04/27 05:12:57;;;;;;;4.17;2.40;;;;;;;9.19;71.92;96736.84;5070223;28;20227;-70
2023/04/27 05:15:24;;;;;;;3.37;2.70;;;;;;;9.18;72.00;96719.69;5088565;28;20199;-69
2023/04/27 05:17:52;;;;;;;4.73;2.70;;;;;;;9.24;71.29;96737.50;5087318;28;20184;-69
2023/04/27 05:20:20;;;;;;;3.00;2.70;;;;;;;9.19;71.99;96744.59;5088592;28;20267;-70
2023/04/27 05:22:47;;;;;;;3.97;2.57;;;;;;;9.14;71.69;96746.56;5087686;28;20188;-70
2023/04/27 05:25:14;;;;;;;5.10;3.73;;;;;;;9.10;72.16;96734.69;5088395;28;20200;-73
2023/04/27 05:27:41;;;;;;;5.63;3.13;;;;;;;9.15;72.31;96737.09;5087371;28;20193;-70
2023/04/27 05:30:09;;;;;;;7.10;4.40;;;;;;;9.20;72.29;96742.88;5088150;28;20199;-70
2023/04/27 05:32:36;;;;;;;5.20;3.83;;;;;;;9.05;72.41;96744.38;5087972;28;20244;-68
2023/04/27 05:35:04;;;;;;;7.23;4.37;;;;;;;9.14;72.28;96743.97;5087210;28;20185;-69
2023/04/27 05:37:31;;;;;;;7.47;3.83;;;;;;;9.16;71.72;96746.50;5088208;28;20189;-70
2023/04/27 05:39:58;;;;;;;6.70;4.67;;;;;;;9.23;71.82;96732.41;5087094;28;20189;-70
2023/04/27 05:42:25;;;;;;;4.97;3.83;;;;;;;9.22;71.04;96746.22;5088103;28;20197;-69
2023/04/27 05:44:52;;;;;;;6.93;4.50;;;;;;;9.35;71.12;96730.09;5086735;28;20219;-68
2023/04/27 05:47:19;;;;;;;5.87;4.57;;;;;;;9.61;70.91;96734.03;5088089;28;20200;-69
2023/04/27 05:49:53;;;;;;;8.53;4.67;;;;;;;9.56;70.28;96721.31;5087840;28;20701;-69
2023/04/27 05:52:20;;;;;;;4.60;3.50;;;;;;;9.59;69.97;96741.88;5085766;28;20224;-70
2023/04/27 05:54:48;;;;;;;6.50;4.57;;;;;;;9.65;70.01;96741.59;5088111;28;20198;-70
2023/04/27 05:57:16;;;;;;;5.27;3.77;;;;;;;9.41;70.42;96723.81;5086746;28;20197;-69
2023/04/27 05:59:43;;;;;;;5.37;4.43;;;;;;;9.57;70.54;96733.38;5088664;28;20568;-69
2023/04/27 06:02:10;;;;;;;6.67;4.47;;;;;;;9.58;70.59;96735.03;5091104;28;20684;-68
2023/04/27 06:04:37;;;;;;;6.30;4.47;;;;;;;9.68;70.19;96727.69;5098387;28;20631;-68
2023/04/27 06:07:14;;;;;;;4.60;4.20;;;;;;;9.70;70.12;96746.56;5088580;28;20181;-68
2023/04/27 06:09:42;;;;;;;5.93;4.63;;;;;;;9.79;69.80;96749.53;5087291;28;21026;-68
2023/04/27 06:12:09;;;;;;;5.70;4.43;;;;;;;10.00;68.87;96745.09;5088027;28;20227;-70
2023/04/27 06:14:37;;;;;;;11.43;4.20;;;;;;;10.06;68.40;96751.69;5086837;28;20207;-70
2023/04/27 06:17:04;;;;;;;5.93;4.53;;;;;;;10.10;68.54;96748.09;5086612;28;20250;-70
2023/04/27 06:19:32;;;;;;;4.40;3.77;;;;;;;9.99;68.28;96751.19;5085266;28;20264;-69
2023/04/27 06:21:59;;;;;;;5.47;3.63;;;;;;;10.10;67.33;96761.03;5087418;28;20283;-69
2023/04/27 06:24:27;;;;;;;5.30;3.80;;;;;;;10.22;67.53;96752.69;5087296;28;20694;-68
2023/04/27 06:26:54;;;;;;;5.83;3.73;;;;;;;10.07;67.31;96733.53;5085307;28;20614;-69
2023/04/27 06:29:21;;;;;;;6.87;4.20;;;;;;;10.26;67.11;96764.56;5087810;28;20192;-69
2023/04/27 06:31:49;;;;;;;4.97;4.47;;;;;;;10.39;66.25;96756.13;5084823;28;20236;-69
2023/04/27 06:34:18;;;;;;;7.90;5.30;;;;;;;10.62;65.06;96747.19;5087641;28;20225;-70
2023/04/27 06:36:46;;;;;;;7.67;4.67;;;;;;;10.72;65.25;96756.16;5068574;28;20676;-69
2023/04/27 06:39:13;;;;;;;7.73;5.07;;;;;;;10.79;64.89;96749.78;5086369;28;20197;-69
2023/04/27 06:41:40;;;;;;;8.53;6.13;;;;;;;10.70;65.51;96763.19;5091027;28;20193;-69
2023/04/27 06:44:18;;;;;;;7.77;5.07;;;;;;;10.79;64.82;96770.50;5087259;28;20784;-70
2023/04/27 06:46:45;;;;;;;6.47;5.40;;;;;;;10.89;64.27;96761.34;5088827;28;20334;-70
2023/04/27 06:49:12;;;;;;;7.63;4.90;;;;;;;10.65;65.14;96750.47;5091412;28;20224;-68
2023/04/27 06:51:40;;;;;;;7.27;5.50;;;;;;;10.94;65.38;96771.47;5090707;28;20271;-68
2023/04/27 06:54:07;;;;;;;8.40;5.23;;;;;;;11.19;63.58;96757.13;5091228;28;20197;-69
2023/04/27 06:56:34;;;;;;;5.20;4.23;;;;;;;11.16;63.96;96767.69;5070289;28;20242;-69
2023/04/27 06:59:01;;;;;;;8.00;6.67;;;;;;;11.41;63.01;96769.81;5090860;28;20660;-70
2023/04/27 07:01:30;;;;;;;7.87;5.23;;;;;;;11.41;62.60;96780.19;5088462;28;20833;-69
2023/04/27 07:03:57;;;;;;;9.67;5.70;;;;;;;11.75;61.84;96768.84;5090853;28;20206;-69
2023/04/27 07:06:25;;;;;;;7.03;4.50;;;;;;;11.90;60.28;96762.81;5088355;28;20189;-69
2023/04/27 07:08:54;;;;;;;6.00;4.50;;;;;;;11.67;60.80;96766.69;5090855;28;20197;-67
2023/04/27 07:11:22;;;;;;;9.23;4.63;;;;;;;11.84;61.42;96768.34;5089662;28;20193;-68
2023/04/27 07:13:49;;;;;;;6.50;4.93;;;;;;;12.00;61.08;96775.22;5090582;28;20228;-70
2023/04/27 07:16:18;;;;;;;5.20;4.50;;;;;;;11.87;60.01;96776.00;5090426;28;20675;-71
2023/04/27 07:18:45;;;;;;;7.20;4.80;;;;;;;11.81;60.47;96769.34;5089424;28;20255;-67
2023/04/27 07:21:13;;;;;;;8.93;4.83;;;;;;;11.94;61.17;96765.16;5089392;28;20181;-70
2023/04/27 07:23:40;;;;;;;8.07;5.10;;;;;;;11.87;61.11;96769.00;5089527;28;20732;-70
2023/04/27 07:26:08;;;;;;;8.57;5.57;;;;;;;11.83;59.32;96782.25;5090541;28;20609;-72
2023/04/27 07:28:35;;;;;;;10.23;5.27;;;;;;;11.76;59.87;96776.56;5088847;28;20215;-68
2023/04/27 07:31:04;;;;;;;6.30;3.93;;;;;;;11.52;60.52;96751.09;5088320;28;20685;-70
2023/04/27 07:33:34;;;;;;;6.30;4.93;;;;;;;11.72;60.80;96774.22;5077303;28;20618;-70
2023/04/27 07:36:01;;;;;;;7.57;3.80;;;;;;;11.66;60.33;96780.59;5076940;28;20697;-69
2023/04/27 07:38:30;;;;;;;5.60;4.10;;;;;;;11.45;59.63;96756.63;5084965;28;21007;-67
2023/04/27 07:41:06;;;;;;;6.47;4.17;;;;;;;11.83;59.58;96771.88;5078891;28;20189;-68
2023/04/27 07:43:34;;;;;;;6.87;5.10;;;;;;;11.58;60.21;96766.31;5070243;28;20725;-68
2023/04/27 07:46:02;;;;;;;5.80;4.23;;;;;;;11.64;60.56;96751.28;5068710;28;20212;-70
2023/04/27 07:48:31;;;;;;;5.73;4.70;;;;;;;11.66;60.45;96767.63;5069424;28;20324;-72
2023/04/27 07:51:01;;;;;;;7.93;4.93;;;;;;;11.92;59.65;96773.97;5102090;28;20308;-70
2023/04/27 07:53:28;;;;;;;6.70;4.37;;;;;;;11.72;59.67;96706.78;5068896;28;20608;-66
2023/04/27 07:55:55;;;;;;;8.53;4.80;;;;;;;12.05;59.73;96761.97;5069597;28;20196;-69
2023/04/27 07:58:22;;;;;;;8.47;4.13;;;;;;;12.39;58.19;96779.91;5068258;28;20195;-68
2023/04/27 08:00:50;;;;;;;7.00;4.37;;;;;;;12.25;57.81;96725.34;5069565;28;20194;-69
2023/04/27 08:03:17;;;;;;;6.50;4.30;;;;;;;12.27;58.12;96778.03;5100795;28;20247;-69
2023/04/27 08:05:45;;;;;;;5.20;4.67;;;;;;;12.29;57.64;96765.78;5067880;28;20610;-68
2023/04/27 08:08:13;;;;;;;6.90;4.27;;;;;;;11.97;58.64;96777.97;5101162;28;20182;-69
2023/04/27 08:10:41;;;;;;;6.10;4.77;;;;;;;12.45;59.41;96771.78;5050079;28;20259;-67
2023/04/27 08:13:08;;;;;;;5.77;4.30;;;;;;;12.77;57.48;96762.97;5069102;28;20252;-69
2023/04/27 08:15:36;;;;;;;10.20;4.60;;;;;;;12.82;56.89;96768.72;5068037;28;20198;-68
2023/04/27 08:18:03;;;;;;;4.77;3.90;;;;;;;12.48;56.75;96774.22;5068937;28;20201;-69
2023/04/27 08:20:30;;;;;;;7.07;5.00;;;;;;;12.43;57.75;96760.63;5068241;28;20202;-71
2023/04/27 08:22:59;;;;;;;8.30;5.07;;;;;;;12.29;56.97;96778.78;5100701;28;20199;-70
2023/04/27 08:25:26;;;;;;;8.30;4.70;;;;;;;12.18;57.70;96788.91;5067541;28;20311;-68
2023/04/27 08:27:53;;;;;;;5.83;4.53;;;;;;;12.30;57.65;96790.84;5071466;28;20210;-68
2023/04/27 08:30:20;;;;;;;5.20;4.10;;;;;;;12.57;57.28;96776.25;5075074;28;20228;-72
2023/04/27 08:32:48;;;;;;;6.97;4.33;;;;;;;12.76;56.55;96760.44;5076720;28;20228;-73
2023/04/27 08:35:17;;;;;;;7.47;4.80;;;;;;;12.52;57.04;96780.06;5089274;28;20188;-68
2023/04/27 08:37:44;;;;;;;5.57;4.40;;;;;;;12.51;56.97;96768.81;5088141;28;20550;-70
2023/04/27 08:40:11;;;;;;;6.90;3.93;;;;;;;12.40;57.37;96768.63;5089248;28;20189;-69
2023/04/27 08:42:52;;;;;;;7.37;4.80;;;;;;;12.72;56.75;96757.19;5088889;28;20194;-69
2023/04/27 08:45:19;;;;;;;6.83;3.80;;;;;;;12.57;55.59;96759.84;5087530;28;20235;-69
2023/04/27 08:47:46;;;;;;;6.93;4.17;;;;;;;12.81;56.07;96767.06;5088615;28;20246;-70
2023/04/27 08:50:13;;;;;;;10.90;4.13;;;;;;;12.70;55.93;96769.44;5087557;28;20328;-70
2023/04/27 08:52:43;;;;;;;7.50;4.10;;;;;;;12.47;55.89;96745.72;5088431;28;20236;-71
2023/04/27 08:55:11;;;;;;;7.90;4.30;;;;;;;12.72;55.45;96759.78;5087964;28;20640;-73
2023/04/27 08:57:55;;;;;;;6.63;4.13;;;;;;;12.77;56.19;96762.97;5088310;28;20202;-70
2023/04/27 09:00:24;;;;;;;5.73;4.13;;;;;;;12.51;56.24;96774.00;5088643;28;20687;-71
2023/04/27 09:02:51;;;;;;;8.80;3.97;;;;;;;12.39;56.36;96766.94;5085762;28;20303;-69
2023/04/27 09:05:22;;;;;;;7.07;4.20;;;;;;;12.41;56.23;96754.69;5088608;28;20186;-71
2023/04/27 09:07:56;;;;;;;7.17;3.93;;;;;;;12.58;55.78;96761.50;5087319;28;20242;-72
2023/04/27 09:10:23;;;;;;;5.97;3.90;;;;;;;12.59;56.88;96756.22;5086899;28;20675;-70
2023/04/27 09:12:55;;;;;;;7.80;4.37;;;;;;;12.44;56.40;96741.53;5086782;28;20212;-69
2023/04/27 09:15:23;;;;;;;8.30;4.90;;;;;;;12.67;56.83;96756.63;5101858;28;20194;-69
2023/04/27 09:18:17;;;;;;;4.33;3.87;;;;;;;12.86;55.53;96766.75;5105975;28;20218;-69
2023/04/27 09:20:48;;;;;;;5.47;4.17;;;;;;;12.75;54.93;96764.81;5085712;28;20207;-73
2023/04/27 09:23:35;;;;;;;5.97;3.80;;;;;;;12.63;55.34;96781.09;5088808;28;20188;-69
2023/04/27 09:26:09;;;;;;;6.80;3.63;;;;;;;12.85;55.25;96737.34;5088091;28;20186;-72
2023/04/27 09:28:38;;;;;;;5.30;3.53;;;;;;;13.02;53.86;96755.34;5086993;28;20283;-70
2023/04/27 09:31:07;;;;;;;3.90;3.50;;;;;;;13.17;54.80;96747.63;5088115;28;20208;-69
2023/04/27 09:33:35;;;;;;;5.10;4.17;;;;;;;13.10;54.19;96754.09;5086607;28;20406;-68
2023/04/27 09:36:04;;;;;;;7.33;3.87;;;;;;;13.08;54.96;96754.22;5087687;28;20191;-70
2023/04/27 09:38:32;;;;;;;6.20;3.83;;;;;;;13.20;54.40;96752.63;5085972;28;20202;-70
2023/04/27 09:41:00;;;;;;;6.93;4.00;;;;;;;13.61;52.79;96741.34;5085727;28;20198;-70
2023/04/27 09:43:28;;;;;;;5.07;3.73;;;;;;;13.85;52.77;96741.56;5087860;28;20213;-70
2023/04/27 09:45:57;;;;;;;6.07;4.00;;;;;;;13.70;53.09;96734.75;5086987;28;20192;-70
2023/04/27 09:48:25;;;;;;;4.47;3.17;;;;;;;13.20;53.80;96734.41;5086179;28;20343;-71
2023/04/27 09:50:52;;;;;;;7.07;3.87;;;;;;;13.50;52.98;96737.72;5079682;28;20239;-68
2023/04/27 09:53:25;;;;;;;5.37;3.63;;;;;;;13.36;53.04;96743.78;5088046;28;20249;-72
2023/04/27 09:56:12;;;;;;;3.70;3.30;;;;;;;13.20;54.21;96739.63;5069183;28;20905;-68
2023/04/27 09:58:53;;;;;;;4.40;3.43;;;;;;;12.96;54.14;96734.94;5073031;28;20195;-69
2023/04/27 10:01:29;;;;;;;5.33;3.90;;;;;;;13.17;54.18;96724.22;5087494;28;20214;-69
2023/04/27 10:04:15;;;;;;;6.67;3.73;;;;;;;13.07;53.84;96721.31;5093093;28;20197;-69
2023/04/27 10:07:00;;;;;;;3.97;3.57;;;;;;;13.25;53.28;96727.19;5100907;28;20206;-67
2023/04/27 10:09:35;;;;;;;4.53;3.87;;;;;;;13.31;54.17;96738.06;5089299;28;20188;-70
2023/04/27 10:12:15;;;;;;;8.07;3.30;;;;;;;13.25;52.41;96742.78;5087111;28;20227;-71
2023/04/27 10:14:48;;;;;;;8.43;4.13;;;;;;;13.37;52.61;96744.63;5087607;28;20549;-69
2023/04/27 10:17:16;;;;;;;6.43;3.47;;;;;;;13.39;52.07;96745.38;5085660;28;20589;-68
2023/04/27 10:20:01;;;;;;;7.50;4.20;;;;;;;13.61;51.96;96743.13;5087161;28;20288;-69
2023/04/27 10:22:51;;;;;;;7.47;3.53;;;;;;;13.79;50.58;96749.75;5087534;28;20316;-69
2023/04/27 10:25:25;;;;;;;6.43;3.30;;;;;;;13.63;50.14;96744.69;5089076;28;20202;-69
2023/04/27 10:27:55;;;;;;;4.67;3.30;;;;;;;13.77;50.95;96743.81;5087297;28;20222;-69
2023/04/27 10:30:25;;;;;;;3.77;3.00;;;;;;;13.70;49.95;96732.13;5086770;28;20192;-70
2023/04/27 10:32:55;;;;;;;5.20;2.90;;;;;;;13.85;50.18;96749.38;5090125;28;20226;-69
2023/04/27 10:35:44;;;;;;;4.77;3.27;;;;;;;13.84;49.58;96747.72;5073310;28;20189;-70
2023/04/27 10:38:18;;;;;;;4.37;3.20;;;;;;;13.63;50.17;96754.25;5090487;28;20340;-69
2023/04/27 10:41:00;;;;;;;3.53;3.10;;;;;;;13.64;50.69;96755.94;5091257;28;20234;-70
2023/04/27 10:43:30;;;;;;;5.07;3.40;;;;;;;13.63;49.27;96743.84;5091057;28;20248;-73
2023/04/27 10:46:14;;;;;;;4.77;2.97;;;;;;;13.61;49.49;96753.50;5090545;28;20224;-70
2023/04/27 10:48:43;;;;;;;5.93;3.60;;;;;;;13.65;50.96;96748.03;5090891;28;20249;-68
2023/04/27 10:51:15;;;;;;;6.60;3.07;;;;;;;13.66;50.34;96754.09;5092858;28;20199;-67
2023/04/27 10:53:42;;;;;;;3.50;3.03;;;;;;;13.57;51.75;96772.84;5104351;28;20218;-68
2023/04/27 10:56:09;;;;;;;5.90;3.30;;;;;;;13.54;51.85;96753.06;5094883;28;20193;-72
2023/04/27 10:58:37;;;;;;;7.07;3.47;;;;;;;13.61;51.73;96750.91;5091151;28;20191;-69
2023/04/27 11:01:07;;;;;;;5.43;3.43;;;;;;;13.42;52.50;96751.22;5090765;28;20217;-69
2023/04/27 11:03:35;;;;;;;4.50;3.00;;;;;;;13.43;51.85;96741.66;5089949;28;20187;-69
2023/04/27 11:06:04;;;;;;;6.40;3.30;;;;;;;13.28;53.06;96760.78;5090449;28;20193;-69
2023/04/27 11:08:32;;;;;;;4.70;3.00;;;;;;;13.08;52.43;96773.22;5087939;28;20213;-69
2023/04/27 11:11:00;;;;;;;5.63;3.13;;;;;;;13.08;53.41;96764.59;5090803;28;20549;-70
2023/04/27 11:13:27;;;;;;;6.60;3.40;;;;;;;13.14;53.00;96769.44;5089668;28;20216;-69
2023/04/27 11:15:57;;;;;;;6.73;3.47;;;;;;;13.08;53.34;96746.41;5091615;28;20279;-71
2023/04/27 11:18:26;;;;;;;4.90;3.03;;;;;;;13.44;52.79;96756.31;5091198;28;20199;-70
2023/04/27 11:21:09;;;;;;;6.60;3.57;;;;;;;13.54;52.66;96760.06;5089788;28;20193;-70
2023/04/27 11:23:37;;;;;;;6.17;3.30;;;;;;;13.69;52.87;96753.88;5089341;28;20341;-70
2023/04/27 11:26:08;;;;;;;5.77;3.63;;;;;;;13.68;52.80;96758.22;5089308;28;20509;-69
2023/04/27 11:28:57;;;;;;;6.70;3.20;;;;;;;13.54;51.61;96771.28;5089928;28;20277;-71
2023/04/27 11:31:26;;;;;;;4.47;3.00;;;;;;;13.32;52.15;96749.28;5090355;28;20185;-71
2023/04/27 11:33:53;;;;;;;6.77;3.50;;;;;;;13.42;53.36;96784.19;5088783;28;20269;-72
2023/04/27 11:36:23;;;;;;;5.43;3.37;;;;;;;13.28;52.69;96789.41;5091002;28;20614;-69
2023/04/27 11:38:50;;;;;;;7.07;3.83;;;;;;;13.46;52.79;96768.31;5092381;28;20199;-71
2023/04/27 11:41:17;;;;;;;6.10;3.50;;;;;;;13.52;51.98;96761.88;5108100;28;20187;-69
2023/04/27 11:43:50;;;;;;;4.87;3.13;;;;;;;13.43;52.77;96763.31;5099995;28;20202;-71
2023/04/27 11:46:21;;;;;;;4.93;2.97;;;;;;;13.50;51.56;96771.53;5090223;28;20287;-72